Time;durP1;ratioP1;P1;durP2;ratioP2;P2;SDS_P1;SDS_P2;PMS_P1;PMS_P2;Temp;Humidity;BMP_temperature;BMP_pressure;BME280_temperature;BME280_humidity;BME280_pressure;Samples;Min_cycle;Max_cycle;Signal;HPM_P1;HPM_P2
2021/01/13 00:00:38;;;;;;;23.42;2.92;;;;;;;;;;4986069;28;20044;-60
2021/01/13 00:03:04;;;;;;;17.85;2.25;;;;;;;;;;4988187;28;20049;-60
2021/01/13 00:05:30;;;;;;;11.55;1.95;;;;;;;;;;4990612;28;20049;-60
2021/01/13 00:07:56;;;;;;;12.07;1.80;;;;;;;;;;4982894;28;20396;-60
2021/01/13 00:10:22;;;;;;;17.10;1.65;;;;;;;;;;4982862;28;20054;-60
2021/01/13 00:12:48;;;;;;;20.58;2.03;;;;;;;;;;4981360;28;20056;-60
2021/01/13 00:15:14;;;;;;;13.77;2.03;;;;;;;;;;4982121;28;20557;-60
2021/01/13 00:17:46;;;;;;;16.67;2.10;;;;;;;;;;4984854;28;20045;-60
2021/01/13 00:20:12;;;;;;;11.57;1.88;;;;;;;;;;4984850;28;20065;-61
2021/01/13 00:22:38;;;;;;;18.52;2.33;;;;;;;;;;4980604;28;20100;-60
2021/01/13 00:25:04;;;;;;;17.95;2.03;;;;;;;;;;4985621;28;20034;-60
2021/01/13 00:27:33;;;;;;;10.30;1.73;;;;;;;;;;4986627;28;20038;-60
2021/01/13 00:29:59;;;;;;;17.27;2.15;;;;;;;;;;4986208;28;20066;-60
2021/01/13 00:32:27;;;;;;;27.00;2.65;;;;;;;;;;4989626;28;20137;-60
2021/01/13 00:34:53;;;;;;;24.20;2.78;;;;;;;;;;4985161;28;20918;-60
2021/01/13 00:37:19;;;;;;;29.35;2.30;;;;;;;;;;4987489;28;20043;-60
2021/01/13 00:39:45;;;;;;;9.13;1.83;;;;;;;;;;4980318;28;20034;-60
2021/01/13 00:42:11;;;;;;;14.63;2.28;;;;;;;;;;4991160;28;20034;-60
2021/01/13 00:44:37;;;;;;;24.15;2.72;;;;;;;;;;4987683;28;20065;-60
2021/01/13 00:47:03;;;;;;;12.93;1.88;;;;;;;;;;4987006;28;20038;-60
2021/01/13 00:49:29;;;;;;;10.77;2.10;;;;;;;;;;4983834;28;20658;-60
2021/01/13 00:51:55;;;;;;;20.58;2.10;;;;;;;;;;4986906;28;20084;-61
2021/01/13 00:54:21;;;;;;;14.68;2.63;;;;;;;;;;4982681;28;20553;-60
2021/01/13 00:56:48;;;;;;;26.30;2.92;;;;;;;;;;4987311;28;20120;-61
2021/01/13 00:59:15;;;;;;;21.23;3.28;;;;;;;;;;4987153;28;20506;-60
2021/01/13 01:01:41;;;;;;;21.95;2.70;;;;;;;;;;4989134;28;20064;-60
2021/01/13 01:04:08;;;;;;;27.90;2.47;;;;;;;;;;4986433;28;20042;-60
2021/01/13 01:06:34;;;;;;;20.60;2.40;;;;;;;;;;4986943;28;20034;-60
2021/01/13 01:09:00;;;;;;;24.73;2.90;;;;;;;;;;4985010;28;20048;-60
2021/01/13 01:11:38;;;;;;;20.10;2.72;;;;;;;;;;4982110;28;20037;-60
2021/01/13 01:14:06;;;;;;;23.05;1.95;;;;;;;;;;4988430;28;20294;-60
2021/01/13 01:16:32;;;;;;;23.23;2.45;;;;;;;;;;4989850;28;20053;-60
2021/01/13 01:18:58;;;;;;;24.70;2.88;;;;;;;;;;4991388;28;20089;-60
2021/01/13 01:21:25;;;;;;;13.68;2.78;;;;;;;;;;4988576;28;20042;-60
2021/01/13 01:23:53;;;;;;;15.35;2.50;;;;;;;;;;4994240;28;20038;-60
2021/01/13 01:26:19;;;;;;;30.02;2.65;;;;;;;;;;4989259;28;20581;-60
2021/01/13 01:28:45;;;;;;;26.25;2.75;;;;;;;;;;4987274;28;20068;-60
2021/01/13 01:31:11;;;;;;;14.20;2.40;;;;;;;;;;4991023;28;20079;-61
2021/01/13 01:33:37;;;;;;;18.83;2.63;;;;;;;;;;4989884;28;20115;-60
2021/01/13 01:36:03;;;;;;;14.45;2.30;;;;;;;;;;4987555;28;20045;-60
2021/01/13 01:38:29;;;;;;;15.63;1.92;;;;;;;;;;4993904;28;20493;-61
2021/01/13 01:41:04;;;;;;;16.25;3.10;;;;;;;;;;4990302;28;20584;-60
2021/01/13 01:43:30;;;;;;;18.58;2.05;;;;;;;;;;4998113;28;20042;-60
2021/01/13 01:45:56;;;;;;;16.45;2.70;;;;;;;;;;4993911;28;20037;-60
2021/01/13 01:48:32;;;;;;;24.27;2.13;;;;;;;;;;4993073;28;20462;-60
2021/01/13 01:50:59;;;;;;;16.02;1.73;;;;;;;;;;4992244;28;20108;-61
2021/01/13 01:53:25;;;;;;;15.25;2.10;;;;;;;;;;4988910;28;20678;-60
2021/01/13 01:56:10;;;;;;;13.40;1.98;;;;;;;;;;4992348;28;20041;-59
2021/01/13 01:58:36;;;;;;;15.18;1.70;;;;;;;;;;4992701;28;20101;-60
2021/01/13 02:01:03;;;;;;;10.05;1.85;;;;;;;;;;4988976;28;21708;-60
2021/01/13 02:03:30;;;;;;;13.20;1.65;;;;;;;;;;4987643;28;20747;-60
2021/01/13 02:06:04;;;;;;;14.60;2.38;;;;;;;;;;4993574;28;20053;-60
2021/01/13 02:08:36;;;;;;;15.68;2.00;;;;;;;;;;4990667;28;20045;-60
2021/01/13 02:11:02;;;;;;;15.95;1.73;;;;;;;;;;4988925;28;20096;-60
2021/01/13 02:13:28;;;;;;;16.60;2.55;;;;;;;;;;4987755;28;20463;-60
2021/01/13 02:15:54;;;;;;;19.10;1.50;;;;;;;;;;4984893;28;20037;-60
2021/01/13 02:18:22;;;;;;;9.02;1.52;;;;;;;;;;4988852;28;20119;-60
2021/01/13 02:20:53;;;;;;;19.92;2.60;;;;;;;;;;4987878;28;20092;-60
2021/01/13 02:23:29;;;;;;;13.60;1.95;;;;;;;;;;4988504;28;20030;-59
2021/01/13 02:26:13;;;;;;;16.58;2.28;;;;;;;;;;4988634;28;20403;-60
2021/01/13 02:28:46;;;;;;;15.82;1.80;;;;;;;;;;4986934;28;20038;-60
2021/01/13 02:31:23;;;;;;;19.45;2.38;;;;;;;;;;4988385;28;20580;-60
2021/01/13 02:33:56;;;;;;;19.60;2.13;;;;;;;;;;4985999;28;20110;-59
2021/01/13 02:36:22;;;;;;;20.42;2.03;;;;;;;;;;4992354;28;20035;-63
2021/01/13 02:38:51;;;;;;;14.98;2.40;;;;;;;;;;4988202;28;20084;-60
2021/01/13 02:41:18;;;;;;;20.52;2.45;;;;;;;;;;4989530;28;20038;-60
2021/01/13 02:44:10;;;;;;;23.08;1.58;;;;;;;;;;4980206;28;20272;-60
2021/01/13 02:46:42;;;;;;;14.20;2.28;;;;;;;;;;4985253;28;20422;-60
2021/01/13 02:49:09;;;;;;;18.83;1.85;;;;;;;;;;4989259;28;20031;-59
2021/01/13 02:51:37;;;;;;;16.77;1.77;;;;;;;;;;4988481;28;20410;-59
2021/01/13 02:54:12;;;;;;;15.50;1.80;;;;;;;;;;4994263;28;20030;-60
2021/01/13 02:56:42;;;;;;;16.38;2.13;;;;;;;;;;4989126;28;20038;-60
2021/01/13 02:59:09;;;;;;;14.00;2.08;;;;;;;;;;4984979;28;20045;-59
2021/01/13 03:01:38;;;;;;;15.20;1.90;;;;;;;;;;4986964;28;20049;-60
2021/01/13 03:04:04;;;;;;;16.52;1.92;;;;;;;;;;4988276;28;20057;-61
2021/01/13 03:06:35;;;;;;;15.80;2.25;;;;;;;;;;4991018;28;20527;-60
2021/01/13 03:09:03;;;;;;;24.58;2.40;;;;;;;;;;4983283;28;20113;-60
2021/01/13 03:11:29;;;;;;;17.33;2.10;;;;;;;;;;4993093;28;20900;-60
2021/01/13 03:14:08;;;;;;;12.80;1.92;;;;;;;;;;4981847;28;20140;-59
2021/01/13 03:16:38;;;;;;;13.30;1.90;;;;;;;;;;4985896;28;20045;-59
2021/01/13 03:19:16;;;;;;;16.40;1.75;;;;;;;;;;4984357;28;20050;-59
2021/01/13 03:22:00;;;;;;;12.85;1.88;;;;;;;;;;4987706;28;21425;-60
2021/01/13 03:24:36;;;;;;;10.13;1.70;;;;;;;;;;4995429;28;20030;-60
2021/01/13 03:27:02;;;;;;;15.95;1.70;;;;;;;;;;4989445;28;20120;-61
2021/01/13 03:29:28;;;;;;;11.13;1.30;;;;;;;;;;4985809;28;20045;-60
2021/01/13 03:32:00;;;;;;;4.95;0.90;;;;;;;;;;4990866;28;20913;-60
2021/01/13 03:34:30;;;;;;;6.40;0.93;;;;;;;;;;4989077;28;20117;-60
2021/01/13 03:37:14;;;;;;;13.18;1.20;;;;;;;;;;4987868;28;20037;-60
2021/01/13 03:39:40;;;;;;;4.28;0.93;;;;;;;;;;4983860;28;20552;-60
2021/01/13 03:42:14;;;;;;;4.68;0.90;;;;;;;;;;4987350;28;20483;-60
2021/01/13 03:44:41;;;;;;;7.10;1.73;;;;;;;;;;4987338;28;20026;-60
2021/01/13 03:47:13;;;;;;;4.07;1.30;;;;;;;;;;4991571;28;20062;-60
2021/01/13 03:49:41;;;;;;;10.02;1.38;;;;;;;;;;4983600;28;20102;-60
2021/01/13 03:52:08;;;;;;;24.88;2.45;;;;;;;;;;4984264;28;20764;-60
2021/01/13 03:54:35;;;;;;;16.67;2.17;;;;;;;;;;4989016;28;20046;-60
2021/01/13 03:57:03;;;;;;;12.85;1.77;;;;;;;;;;4989891;28;20044;-60
2021/01/13 03:59:37;;;;;;;12.32;1.95;;;;;;;;;;4986569;28;20038;-60
2021/01/13 04:02:05;;;;;;;7.43;1.42;;;;;;;;;;4986362;28;20085;-60
2021/01/13 04:04:49;;;;;;;9.63;1.80;;;;;;;;;;4986352;28;20041;-60
2021/01/13 04:07:15;;;;;;;11.02;1.65;;;;;;;;;;4985488;28;20160;-60
2021/01/13 04:09:42;;;;;;;9.80;1.45;;;;;;;;;;4986349;28;20030;-60
2021/01/13 04:12:15;;;;;;;12.35;1.58;;;;;;;;;;4988824;28;20034;-60
2021/01/13 04:14:46;;;;;;;9.10;1.25;;;;;;;;;;4990528;28;20034;-60
2021/01/13 04:17:14;;;;;;;12.80;1.23;;;;;;;;;;4988156;28;20117;-60
2021/01/13 04:19:40;;;;;;;9.23;1.38;;;;;;;;;;4987147;28;20038;-60
2021/01/13 04:22:06;;;;;;;7.75;0.93;;;;;;;;;;4989740;28;20038;-60
2021/01/13 04:24:32;;;;;;;15.93;1.50;;;;;;;;;;4988595;28;20112;-60
2021/01/13 04:26:58;;;;;;;8.75;1.38;;;;;;;;;;4988922;28;20213;-60
2021/01/13 04:29:24;;;;;;;6.05;1.25;;;;;;;;;;4985926;28;20116;-60
2021/01/13 04:31:50;;;;;;;8.10;1.23;;;;;;;;;;4977083;28;20049;-60
2021/01/13 04:34:16;;;;;;;8.52;1.52;;;;;;;;;;4992571;28;20030;-60
2021/01/13 04:36:49;;;;;;;6.55;1.23;;;;;;;;;;4992197;28;20184;-60
2021/01/13 04:39:16;;;;;;;6.82;1.40;;;;;;;;;;4989414;28;20584;-60
2021/01/13 04:41:59;;;;;;;3.67;0.88;;;;;;;;;;4985449;28;20068;-60
2021/01/13 04:44:27;;;;;;;10.80;1.33;;;;;;;;;;4990836;28;20038;-60
2021/01/13 04:46:55;;;;;;;6.93;1.10;;;;;;;;;;4990492;28;20065;-60
2021/01/13 04:49:23;;;;;;;8.07;1.95;;;;;;;;;;4984929;28;20045;-60
2021/01/13 04:51:49;;;;;;;9.68;1.70;;;;;;;;;;4991519;28;20085;-60
2021/01/13 04:54:16;;;;;;;10.15;1.92;;;;;;;;;;4993304;28;20038;-60
2021/01/13 04:56:45;;;;;;;18.88;2.42;;;;;;;;;;4994199;28;20040;-60
2021/01/13 04:59:30;;;;;;;9.68;1.60;;;;;;;;;;4986325;28;20041;-60
2021/01/13 05:02:09;;;;;;;14.68;1.90;;;;;;;;;;4984263;28;20487;-60
2021/01/13 05:04:47;;;;;;;10.73;1.85;;;;;;;;;;4984821;28;20046;-60
2021/01/13 05:07:25;;;;;;;10.90;1.88;;;;;;;;;;4986294;28;20043;-60
2021/01/13 05:09:57;;;;;;;11.70;2.10;;;;;;;;;;4978434;28;20380;-60
2021/01/13 05:12:25;;;;;;;16.58;2.70;;;;;;;;;;4987917;28;20044;-60
2021/01/13 05:14:59;;;;;;;10.77;2.33;;;;;;;;;;4985467;28;20171;-59
2021/01/13 05:17:36;;;;;;;12.98;1.83;;;;;;;;;;4983865;28;20061;-60
2021/01/13 05:20:17;;;;;;;14.13;1.90;;;;;;;;;;4984715;28;20045;-60
2021/01/13 05:22:44;;;;;;;13.70;2.45;;;;;;;;;;4983932;28;20076;-60
2021/01/13 05:25:10;;;;;;;8.10;1.63;;;;;;;;;;4978716;28;20096;-60
2021/01/13 05:27:42;;;;;;;13.20;1.85;;;;;;;;;;4976843;28;20767;-59
2021/01/13 05:30:09;;;;;;;5.63;1.33;;;;;;;;;;4985357;28;20045;-60
2021/01/13 05:32:36;;;;;;;11.95;1.77;;;;;;;;;;4980029;28;20044;-60
2021/01/13 05:35:03;;;;;;;6.47;1.20;;;;;;;;;;4980640;28;21533;-60
2021/01/13 05:37:47;;;;;;;9.27;1.23;;;;;;;;;;4981378;28;20714;-60
2021/01/13 05:40:14;;;;;;;7.47;1.30;;;;;;;;;;4981846;28;20042;-60
2021/01/13 05:42:40;;;;;;;8.50;1.00;;;;;;;;;;4978066;28;20070;-60
2021/01/13 05:45:06;;;;;;;7.15;1.10;;;;;;;;;;4980154;28;20146;-60
2021/01/13 05:47:49;;;;;;;7.78;1.33;;;;;;;;;;4981876;28;20046;-63
2021/01/13 05:50:17;;;;;;;6.68;1.00;;;;;;;;;;4978750;28;20737;-61
2021/01/13 05:52:46;;;;;;;6.38;1.10;;;;;;;;;;4980311;28;20042;-60
2021/01/13 05:55:12;;;;;;;6.50;1.15;;;;;;;;;;4979334;28;20067;-61
2021/01/13 05:57:38;;;;;;;10.60;1.42;;;;;;;;;;4979749;28;20038;-60
2021/01/13 06:00:05;;;;;;;12.45;1.70;;;;;;;;;;4985361;28;20026;-60
2021/01/13 06:02:33;;;;;;;6.00;1.05;;;;;;;;;;4977851;28;20518;-59
2021/01/13 06:05:06;;;;;;;10.18;1.40;;;;;;;;;;4980825;28;20044;-60
2021/01/13 06:07:34;;;;;;;22.60;1.80;;;;;;;;;;4988776;28;20045;-60
2021/01/13 06:10:01;;;;;;;6.30;1.70;;;;;;;;;;4984821;28;20070;-60
2021/01/13 06:12:27;;;;;;;9.38;1.55;;;;;;;;;;4984386;28;23277;-59
2021/01/13 06:14:54;;;;;;;13.57;2.60;;;;;;;;;;4983674;28;20633;-59
2021/01/13 06:17:24;;;;;;;22.42;2.25;;;;;;;;;;4994498;28;20500;-59
2021/01/13 06:19:51;;;;;;;19.15;2.88;;;;;;;;;;4983951;28;20029;-59
2021/01/13 06:22:18;;;;;;;12.50;2.38;;;;;;;;;;4988300;28;20048;-59
2021/01/13 06:24:46;;;;;;;11.30;2.13;;;;;;;;;;4992377;28;20030;-64
2021/01/13 06:27:16;;;;;;;22.45;2.90;;;;;;;;;;4993919;28;20247;-64
2021/01/13 06:29:48;;;;;;;13.73;2.45;;;;;;;;;;4988005;28;20589;-64
2021/01/13 06:32:18;;;;;;;13.25;2.50;;;;;;;;;;4985906;28;20542;-60
2021/01/13 06:34:56;;;;;;;21.40;2.22;;;;;;;;;;4988791;28;20509;-60
2021/01/13 06:37:23;;;;;;;18.00;2.25;;;;;;;;;;4987104;28;20384;-59
2021/01/13 06:39:51;;;;;;;21.70;2.70;;;;;;;;;;4980026;28;20132;-59
2021/01/13 06:42:28;;;;;;;19.95;3.03;;;;;;;;;;4986196;28;20041;-60
2021/01/13 06:44:54;;;;;;;13.60;2.60;;;;;;;;;;4991326;28;20128;-59
2021/01/13 06:47:20;;;;;;;25.90;2.97;;;;;;;;;;4986591;28;20046;-59
2021/01/13 06:49:50;;;;;;;20.23;2.17;;;;;;;;;;4991100;28;20033;-59
2021/01/13 06:52:28;;;;;;;15.68;2.40;;;;;;;;;;4986174;28;20124;-59
2021/01/13 06:54:55;;;;;;;15.60;2.05;;;;;;;;;;4986772;28;20432;-59
2021/01/13 06:57:26;;;;;;;14.48;1.77;;;;;;;;;;4985876;28;20091;-60
2021/01/13 06:59:52;;;;;;;13.20;1.75;;;;;;;;;;4988311;28;20810;-59
2021/01/13 07:02:29;;;;;;;18.27;1.73;;;;;;;;;;4982115;28;20702;-60
2021/01/13 07:04:55;;;;;;;18.05;2.33;;;;;;;;;;4984082;28;20049;-59
2021/01/13 07:07:21;;;;;;;15.70;1.83;;;;;;;;;;4991986;28;20062;-59
2021/01/13 07:09:51;;;;;;;9.13;1.60;;;;;;;;;;4989747;28;20122;-59
2021/01/13 07:12:17;;;;;;;7.55;1.40;;;;;;;;;;4986833;28;20108;-59
2021/01/13 07:14:45;;;;;;;11.15;1.73;;;;;;;;;;4990244;28;20038;-60
2021/01/13 07:17:18;;;;;;;10.82;1.73;;;;;;;;;;4982814;28;20084;-59
2021/01/13 07:19:45;;;;;;;11.23;1.60;;;;;;;;;;4989276;28;20488;-59
2021/01/13 07:22:12;;;;;;;12.15;1.70;;;;;;;;;;4991315;28;20025;-59
2021/01/13 07:24:38;;;;;;;17.00;2.00;;;;;;;;;;4990963;28;20927;-60
2021/01/13 07:27:04;;;;;;;19.85;1.52;;;;;;;;;;4992317;28;20030;-61
2021/01/13 07:29:30;;;;;;;14.68;1.85;;;;;;;;;;4986813;28;20034;-64
2021/01/13 07:31:58;;;;;;;11.77;1.40;;;;;;;;;;4987669;28;20077;-64
2021/01/13 07:34:27;;;;;;;13.90;1.77;;;;;;;;;;4988249;28;21489;-61
2021/01/13 07:36:58;;;;;;;11.35;1.70;;;;;;;;;;4985769;28;20026;-60
2021/01/13 07:39:27;;;;;;;18.10;1.33;;;;;;;;;;4981359;28;22192;-59
2021/01/13 07:41:56;;;;;;;14.60;1.38;;;;;;;;;;4984368;28;20062;-59
2021/01/13 07:44:38;;;;;;;12.10;1.65;;;;;;;;;;4987244;28;20618;-59
2021/01/13 07:47:06;;;;;;;12.27;1.55;;;;;;;;;;4978147;28;20042;-59
2021/01/13 07:49:42;;;;;;;19.50;2.35;;;;;;;;;;4989576;28;20038;-59
2021/01/13 07:52:09;;;;;;;12.80;1.45;;;;;;;;;;4981103;28;20049;-59
2021/01/13 07:54:36;;;;;;;8.43;1.58;;;;;;;;;;4993134;28;20049;-59
2021/01/13 07:57:03;;;;;;;14.98;1.67;;;;;;;;;;4987397;28;22006;-59
2021/01/13 07:59:34;;;;;;;16.23;1.55;;;;;;;;;;4985031;28;20042;-59
2021/01/13 08:02:18;;;;;;;13.40;1.60;;;;;;;;;;4983994;28;20041;-59
2021/01/13 08:05:03;;;;;;;14.25;2.08;;;;;;;;;;4981610;28;20417;-60
2021/01/13 08:07:44;;;;;;;23.33;1.90;;;;;;;;;;4981863;28;20539;-60
2021/01/13 08:10:10;;;;;;;15.10;2.40;;;;;;;;;;4983303;28;20053;-59
2021/01/13 08:13:02;;;;;;;16.48;1.92;;;;;;;;;;4984321;28;20118;-59
2021/01/13 08:15:30;;;;;;;14.30;2.20;;;;;;;;;;4990352;28;20047;-59
2021/01/13 08:18:14;;;;;;;9.68;2.08;;;;;;;;;;4985301;28;20550;-59
2021/01/13 08:20:42;;;;;;;11.80;1.98;;;;;;;;;;4984995;28;20038;-59
2021/01/13 08:23:11;;;;;;;22.88;2.50;;;;;;;;;;4990038;28;20046;-59
2021/01/13 08:25:42;;;;;;;12.57;2.38;;;;;;;;;;4981343;28;20056;-59
2021/01/13 08:28:10;;;;;;;15.77;2.60;;;;;;;;;;4989738;28;20034;-59
2021/01/13 08:30:40;;;;;;;14.68;2.55;;;;;;;;;;4985538;28;20783;-60
2021/01/13 08:33:08;;;;;;;14.75;2.75;;;;;;;;;;4980629;28;20124;-59
2021/01/13 08:35:35;;;;;;;15.55;2.95;;;;;;;;;;4984244;28;20545;-59
2021/01/13 08:38:08;;;;;;;21.50;3.33;;;;;;;;;;4982931;28;20085;-59
2021/01/13 08:40:35;;;;;;;19.13;2.80;;;;;;;;;;4988895;28;20038;-59
2021/01/13 08:43:07;;;;;;;11.65;2.80;;;;;;;;;;4986247;28;20565;-59
2021/01/13 08:45:37;;;;;;;23.88;2.88;;;;;;;;;;4987796;28;20093;-59
2021/01/13 08:48:05;;;;;;;25.73;3.50;;;;;;;;;;4989443;28;20037;-60
2021/01/13 08:50:31;;;;;;;14.05;2.63;;;;;;;;;;4988670;28;20104;-61
2021/01/13 08:53:01;;;;;;;16.60;2.97;;;;;;;;;;4985655;28;20056;-59
2021/01/13 08:55:27;;;;;;;23.08;3.10;;;;;;;;;;4986893;28;20031;-59
2021/01/13 08:58:04;;;;;;;18.08;3.63;;;;;;;;;;4981381;28;20049;-59
2021/01/13 09:00:30;;;;;;;24.70;4.30;;;;;;;;;;4985794;28;20431;-60
2021/01/13 09:03:00;;;;;;;19.83;3.92;;;;;;;;;;4986337;28;21084;-59
2021/01/13 09:05:30;;;;;;;17.33;2.90;;;;;;;;;;4991178;28;20664;-60
2021/01/13 09:07:58;;;;;;;29.65;3.80;;;;;;;;;;4980743;28;20038;-60
2021/01/13 09:10:33;;;;;;;19.02;3.05;;;;;;;;;;4991952;28;20041;-59
2021/01/13 09:13:00;;;;;;;28.05;2.95;;;;;;;;;;4982709;28;20033;-59
2021/01/13 09:15:27;;;;;;;21.38;2.42;;;;;;;;;;4980104;28;20038;-59
2021/01/13 09:17:54;;;;;;;18.17;2.22;;;;;;;;;;4977816;28;20046;-60
2021/01/13 09:20:22;;;;;;;18.80;2.50;;;;;;;;;;4985124;28;20042;-60
2021/01/13 09:22:52;;;;;;;16.85;2.33;;;;;;;;;;4982761;28;20582;-59
2021/01/13 09:25:20;;;;;;;25.70;3.03;;;;;;;;;;4994693;28;20499;-60
2021/01/13 09:27:51;;;;;;;14.77;2.03;;;;;;;;;;4991354;28;20033;-60
2021/01/13 09:30:37;;;;;;;20.42;2.55;;;;;;;;;;4987694;28;20408;-59
2021/01/13 09:33:07;;;;;;;16.98;2.83;;;;;;;;;;4984337;28;20026;-59
2021/01/13 09:35:44;;;;;;;14.93;2.30;;;;;;;;;;4989315;28;23208;-60
2021/01/13 09:38:11;;;;;;;18.25;2.58;;;;;;;;;;4981450;28;20557;-60
2021/01/13 09:40:49;;;;;;;10.57;2.00;;;;;;;;;;4989383;28;20065;-60
2021/01/13 09:43:38;;;;;;;16.13;2.42;;;;;;;;;;4985210;28;20042;-59
2021/01/13 09:46:05;;;;;;;13.13;2.30;;;;;;;;;;4978451;28;20356;-60
2021/01/13 09:48:32;;;;;;;12.85;2.10;;;;;;;;;;4980688;28;20033;-60
2021/01/13 09:51:01;;;;;;;17.73;3.03;;;;;;;;;;4986678;28;20042;-60
2021/01/13 09:53:29;;;;;;;20.73;2.72;;;;;;;;;;4985708;28;20046;-60
2021/01/13 09:56:01;;;;;;;19.65;2.47;;;;;;;;;;4984479;28;20502;-60
2021/01/13 09:58:35;;;;;;;23.83;2.97;;;;;;;;;;4982277;28;22611;-60
2021/01/13 10:01:07;;;;;;;15.05;2.58;;;;;;;;;;4979895;28;20603;-59
2021/01/13 10:03:33;;;;;;;20.35;3.05;;;;;;;;;;4985191;28;20535;-60
2021/01/13 10:05:59;;;;;;;20.85;2.63;;;;;;;;;;4985198;28;20523;-60
2021/01/13 10:08:34;;;;;;;17.80;2.45;;;6.50;61.90;;;;;;4980811;28;20519;-60
2021/01/13 10:11:02;;;;;;;19.40;3.05;;;9.30;65.50;;;;;;4985610;28;20046;-61
2021/01/13 10:13:30;;;;;;;14.07;2.83;;;9.40;65.80;;;;;;4985350;28;20404;-60
2021/01/13 10:16:02;;;;;;;16.85;2.95;;;;;;;;;;4984512;28;20042;-60
2021/01/13 10:18:29;;;;;;;16.95;2.67;;;;;;;;;;4985734;28;20049;-63
2021/01/13 10:20:58;;;;;;;11.52;2.20;;;;;;;;;;4979830;28;20042;-59
2021/01/13 10:23:26;;;;;;;12.43;2.38;;;;;;;;;;4978527;28;20065;-60
2021/01/13 10:26:02;;;;;;;19.38;2.30;;;;;;;;;;4978622;28;20045;-60
2021/01/13 10:28:28;;;;;;;16.38;1.95;;;;;;;;;;4983619;28;20050;-60
2021/01/13 10:30:54;;;;;;;13.13;2.08;;;;;;;;;;4982895;28;20042;-60
2021/01/13 10:33:36;;;;;;;17.13;2.13;;;;;;;;;;4987340;28;20542;-60
2021/01/13 10:36:02;;;;;;;12.98;2.03;;;;;;;;;;4986364;28;20124;-60
2021/01/13 10:38:29;;;;;;;9.20;1.88;;;;;;;;;;4990738;28;20503;-60
2021/01/13 10:40:55;;;;;;;15.27;2.03;;;;;;;;;;4986522;28;20128;-61
2021/01/13 10:43:22;;;;;;;12.15;2.10;;;;;;;;;;4983336;28;20096;-60
2021/01/13 10:45:57;;;;;;;10.13;1.85;;;;;;;;;;4988987;28;20034;-60
2021/01/13 10:48:23;;;;;;;13.70;1.88;;;;;;;;;;4986757;28;20108;-60
2021/01/13 10:50:50;;;;;;;10.60;1.70;;;;;;;;;;4982531;28;23262;-60
2021/01/13 10:53:16;;;;;;;13.50;1.63;;;;;;;;;;4992178;28;20045;-60
2021/01/13 10:55:48;;;;;;;9.23;1.77;;;;;;;;;;4982514;28;20070;-61
2021/01/13 10:58:16;;;;;;;9.00;2.05;;;;;;;;;;4992272;28;20050;-60
2021/01/13 11:00:42;;;;;;;12.95;1.60;;;;;;;;;;4988089;28;20554;-60
2021/01/13 11:03:08;;;;;;;10.00;1.60;;;;;;;;;;4987357;28;20616;-60
2021/01/13 11:05:38;;;;;;;11.23;2.00;;;;;;;;;;4989758;28;20082;-60
2021/01/13 11:08:04;;;;;;;10.30;1.83;;;;;;;;;;4986959;28;20114;-60
2021/01/13 11:10:31;;;;;;;11.95;2.45;;;;;;;;;;4987902;28;20050;-60
2021/01/13 11:13:08;;;;;;;8.25;1.48;;;;;;;;;;4986604;28;20085;-60
2021/01/13 11:15:34;;;;;;;21.05;2.20;;;9.60;65.60;;;;;;4985551;28;20404;-60
2021/01/13 11:18:00;;;;;;;16.25;2.08;;;12.90;56.10;;;;;;4986513;28;20042;-60
2021/01/13 11:20:30;;;;;;;15.57;2.75;;;12.80;55.70;;;;;;4987427;28;20085;-60
2021/01/13 11:22:58;;;;;;;10.50;2.38;;;12.80;55.90;;;;;;4973024;28;20112;-60
2021/01/13 11:25:27;;;;;;;13.65;1.83;;;12.70;55.50;;;;;;4989102;28;20042;-62
2021/01/13 11:28:13;;;;;;;16.60;2.30;;;12.60;55.70;;;;;;4977884;28;20941;-60
2021/01/13 11:30:40;;;;;;;15.05;1.90;;;12.50;55.60;;;;;;4982376;28;20068;-60
2021/01/13 11:33:07;;;;;;;14.05;1.73;;;12.40;55.20;;;;;;4984566;28;20488;-61
2021/01/13 11:35:47;;;;;;;9.02;2.03;;;12.40;56.50;;;;;;5004097;28;20038;-62
2021/01/13 11:38:31;;;;;;;9.32;2.30;;;12.60;56.00;;;;;;4983120;28;20034;-61
2021/01/13 11:41:14;;;;;;;11.23;2.25;;;12.70;55.40;;;;;;4980323;28;20045;-60
2021/01/13 11:44:15;;;;;;;14.10;2.30;;;12.90;56.50;;;;;;4982577;28;20046;-61
2021/01/13 11:46:53;;;;;;;12.25;2.00;;;13.60;55.60;;;;;;4986682;28;20046;-61
2021/01/13 11:49:33;;;;;;;11.23;2.08;;;14.00;54.40;;;;;;4986017;28;20065;-61
2021/01/13 11:52:06;;;;;;;11.82;1.42;;;;;;;;;;4986384;28;20140;-61
2021/01/13 11:54:33;;;;;;;13.18;2.05;;;14.20;52.60;;;;;;4988698;28;20038;-61
2021/01/13 11:57:34;;;;;;;13.15;1.33;;;;;;;;;;4991899;28;20030;-61
2021/01/13 12:00:16;;;;;;;11.00;1.45;;;;;;;;;;4953307;28;20053;-61
2021/01/13 12:03:12;;;;;;;12.98;1.73;;;13.50;51.50;;;;;;4974309;28;20041;-60
2021/01/13 12:05:38;;;;;;;8.48;1.67;;;11.90;53.10;;;;;;4979477;28;20042;-61
2021/01/13 12:08:06;;;;;;;12.23;1.85;;;;;;;;;;4983643;28;20957;-60
2021/01/13 12:10:32;;;;;;;10.18;1.55;;;;;;;;;;4982264;28;20783;-60
2021/01/13 12:13:19;;;;;;;15.68;2.20;;;;;;;;;;4976497;28;20362;-60
2021/01/13 12:15:49;;;;;;;9.18;1.58;;;;;;;;;;4976642;28;20084;-61
2021/01/13 12:18:19;;;;;;;10.60;1.50;;;;;;;;;;4971870;28;20160;-61
2021/01/13 12:20:45;;;;;;;10.77;1.80;;;;;;;;;;4969419;28;20026;-60
2021/01/13 12:23:21;;;;;;;9.70;1.67;;;;;;;;;;4979893;28;20553;-61
2021/01/13 12:25:48;;;;;;;8.77;1.73;;;11.40;54.00;;;;;;4979223;28;20093;-60
2021/01/13 12:28:14;;;;;;;11.48;1.85;;;14.70;51.70;;;;;;4979067;28;20053;-61
2021/01/13 12:30:54;;;;;;;10.80;1.65;;;15.00;50.40;;;;;;4978510;28;20080;-60
2021/01/13 12:33:20;;;;;;;8.93;1.70;;;15.30;49.50;;;;;;4982114;28;20103;-61
2021/01/13 12:35:46;;;;;;;7.82;1.40;;;15.50;48.50;;;;;;4984796;28;20505;-61
2021/01/13 12:38:11;;;;;;;11.10;1.48;;;15.40;48.50;;;;;;4980488;28;20145;-61
2021/01/13 12:40:37;;;;;;;24.38;2.45;;;15.10;47.80;;;;;;4984309;28;20042;-61
2021/01/13 12:43:17;;;;;;;14.10;2.33;;;14.90;48.30;;;;;;4980084;28;20678;-61
2021/01/13 12:45:44;;;;;;;8.90;2.10;;;;;;;;;;4977063;28;20038;-61
2021/01/13 12:48:10;;;;;;;18.70;1.92;;;14.80;48.30;;;;;;4974138;28;20503;-61
2021/01/13 12:50:36;;;;;;;11.65;1.73;;;14.10;48.40;;;;;;4977746;28;20050;-61
2021/01/13 12:53:02;;;;;;;12.80;2.17;;;13.70;48.80;;;;;;4978190;28;20123;-61
2021/01/13 12:55:28;;;;;;;11.40;1.85;;;;;;;;;;4985409;28;20133;-60
2021/01/13 12:57:54;;;;;;;13.95;1.95;;;;;;;;;;4980129;28;20038;-60
2021/01/13 13:00:21;;;;;;;9.80;2.17;;;;;;;;;;4975576;28;20050;-60
2021/01/13 13:02:47;;;;;;;12.52;2.38;;;;;;;;;;4975776;28;20454;-61
2021/01/13 13:05:14;;;;;;;14.80;2.10;;;13.30;49.40;;;;;;4977166;28;20050;-60
2021/01/13 13:07:40;;;;;;;16.40;3.05;;;11.60;52.80;;;;;;4976153;28;20095;-60
2021/01/13 13:10:06;;;;;;;14.73;1.65;;;11.40;53.10;;;;;;4979775;28;20042;-60
2021/01/13 13:12:31;;;;;;;16.58;2.60;;;11.10;53.20;;;;;;4976511;28;20070;-60
2021/01/13 13:14:57;;;;;;;18.73;2.90;;;10.80;53.70;;;;;;4980360;28;20145;-60
2021/01/13 13:17:25;;;;;;;19.50;2.60;;;10.50;54.40;;;;;;4985314;28;20045;-60
2021/01/13 13:19:50;;;;;;;17.60;2.38;;;10.30;55.10;;;;;;4982023;28;20045;-61
2021/01/13 13:22:16;;;;;;;13.38;2.10;;;10.20;56.00;;;;;;4975368;28;20056;-60
2021/01/13 13:24:41;;;;;;;25.48;2.28;;;10.30;56.40;;;;;;4974731;28;20038;-59
2021/01/13 13:27:11;;;;;;;12.15;2.25;;;10.30;56.90;;;;;;4977104;28;20077;-60
2021/01/13 13:29:37;;;;;;;7.07;1.90;;;10.40;57.20;;;;;;4974947;28;20071;-61
2021/01/13 13:32:03;;;;;;;17.38;2.53;;;10.40;57.20;;;;;;4976684;28;20764;-63
2021/01/13 13:34:29;;;;;;;13.73;2.10;;;10.40;57.20;;;;;;4982121;28;20034;-64
2021/01/13 13:36:58;;;;;;;13.93;2.17;;;10.40;57.40;;;;;;4985703;28;20052;-63
2021/01/13 13:39:25;;;;;;;15.75;2.85;;;10.40;57.80;;;;;;4981350;28;22287;-63
2021/01/13 13:41:51;;;;;;;18.88;2.17;;;10.40;57.80;;;;;;4975817;28;20137;-62
2021/01/13 13:44:16;;;;;;;21.02;3.03;;;10.50;58.10;;;;;;4983286;28;20092;-62
2021/01/13 13:46:46;;;;;;;14.68;2.65;;;10.60;58.40;;;;;;4982094;28;20038;-61
2021/01/13 13:49:12;;;;;;;12.90;1.95;;;10.60;58.10;;;;;;4986562;28;20034;-60
2021/01/13 13:51:37;;;;;;;15.25;1.92;;;10.70;57.70;;;;;;4979991;28;20072;-60
2021/01/13 13:54:03;;;;;;;16.48;2.25;;;10.60;57.50;;;;;;4977546;28;20475;-60
2021/01/13 13:56:29;;;;;;;14.10;2.20;;;10.60;57.50;;;;;;4981376;28;20064;-60
2021/01/13 13:58:54;;;;;;;8.15;1.70;;;10.60;57.60;;;;;;4980165;28;20407;-60
2021/01/13 14:01:20;;;;;;;13.60;3.00;;;10.50;57.60;;;;;;4979610;28;20132;-61
2021/01/13 14:03:46;;;;;;;17.38;2.47;;;10.40;57.60;;;;;;4980105;28;20467;-60
2021/01/13 14:06:20;;;;;;;13.43;1.90;;;10.40;57.80;;;;;;4981290;28;20053;-60
2021/01/13 14:08:45;;;;;;;16.75;2.63;;;10.30;57.80;;;;;;4980017;28;22409;-60
2021/01/13 14:11:11;;;;;;;19.65;2.90;;;10.30;57.80;;;;;;4981657;28;20041;-60
2021/01/13 14:13:36;;;;;;;21.20;2.58;;;10.30;58.00;;;;;;4981823;28;20105;-60
2021/01/13 14:16:02;;;;;;;15.65;2.22;;;10.20;58.00;;;;;;4980506;28;20041;-60
2021/01/13 14:18:28;;;;;;;16.95;2.78;;;10.20;58.20;;;;;;4978532;28;20060;-60
2021/01/13 14:20:53;;;;;;;14.88;2.30;;;10.30;58.30;;;;;;4977149;28;20046;-59
2021/01/13 14:23:19;;;;;;;20.38;2.80;;;10.30;58.30;;;;;;4985129;28;20042;-59